Relevés horaires Charleroi (Belgique)


Relevés horaires à Charleroi - Jeudi 21 Mai 2015
Heure UTC1 Température [°C] Vent [km/h] Hum. [%] Pres.4 [hPa] Visi. [Km] Nébu. [octa] Préc.5 [mm] Cond.
2m. Res. Ros. Dir.2 Vit. Moy. Raf.3
23:00 10.9 10.9 4.8 SSO 3.7 3.7 3.7 66 1028.8(0.6/3h) 25 5/8 -- --
22:00 11.1 11.1 4.1 ONO 1.9 1.9 3.7 62 1028.8(1.2/3h) 25 3/8 -- --
21:00 11.4 11.4 3.6 ONO 1.9 5.6 9.3 59 1028.7(1.3/3h) 25 1/8 -- --
20:00 12.8 12.8 2.4 O 1.9 3.7 7.4 49 1028(0.9/3h) 25 1/8 -- --
19:00 14.0 14.0 3.5 ONO 3.7 5.6 9.3 49 1027.3(0.5/3h) 25 1/8 -- --
18:00 15.1 15.1 2.5 NO 5.6 7.4 14.8 43 1027(0.4/3h) 25 1/8 0/12h
--
17:00 16.0 16.0 3.5 ONO 5.6 7.4 14.8 43 1026.8(-0.2/3h) 25 2/8 -- --
16:00 16.0 16.0 3.5 ONO 7.4 7.4 13.0 43 1026.7(0.1/3h) 25 2/8 -- --
15:00 16.1 16.1 3.2 O 7.4 7.4 13.0 42 1026.5(0.1/3h) 25 3/8 -- --
14:00 15.1 15.1 4.6 O 5.6 7.4 13.0 49 1026.7(0.0/3h) 25 3/8 -- --
13:00 15.6 15.6 4.7 O 5.6 7.4 13.0 48 1026.6(0.2/3h) 20 4/8 -- --
12:00 15.0 15.0 5.5 O 5.6 7.4 13.0 53 1026.7(0.4/3h) 20 3/8 0/6h
--
11:00 14.1 14.1 3.8 O 5.6 5.6 11.1 50 1026.8(0.7/3h) 20 4/8 -- --
10:00 13.6 13.6 6.5 O 3.7 5.6 11.1 62 1026.6(0.9/3h) 20 2/8 -- --
09:00 12.7 12.7 7.7 O 3.7 5.6 11.1 72 1026.5(1.3/3h) 20 1/8 -- --
08:00 11.6 11.4 7.9 O 5.6 5.6 11.1 78 1026.2(1.5/3h) 15 1/8 -- --
07:00 9.8 9.4 7.6 OSO 5.6 5.6 7.4 86 1025.9(1.5/3h) 15 1/8 -- --
06:00 7.6 6.8 6.0 SO 5.6 5.6 9.3 90 1025.6(1.5/3h) 15 1/8 0/12h
--
05:00 6.0 5 4.8 OSO 5.6 5.6 7.4 92 1025.2(1.3/3h) 15 1/8 -- --
04:00 5.2 4.1 4.0 OSO 5.6 5.6 7.4 92 1024.8(1.0/3h) 15 1/8 -- --
03:00 5.2 5.2 3.7 SO 3.7 5.6 7.4 90 1024.2(0.8/3h) 25 5/8 -- --
02:00 6.0 5 3.8 OSO 5.6 5.6 5.6 86 1023.8(0.8/3h) 25 4/8 -- --
01:00 5.5 5.5 3.3 OSO 3.7 3.7 7.4 86 1023.7(1.0/3h) 25 5/8 -- --
00:00 5.8 5.8 3.1 O 3.7 5.6 13.0 83 1023.4(1.1/3h) 25 4/8 0/6h
0.3/24h
--

1 Coordinated Universal Time. Actuellement il est 15:00 locale et 13:00 UTC.

2 Le vent souffle depuis la direction indiquée vers la direction oposée.

3 Les rafales max. sont disponible 40 min après l'heure du relevé.

4 Pour les stations d'altitude (plus de 600m) le géopotentiel du niveau le plus proche de la pression obligatoire est indiqué.

5 Les stations disposant d'un diffuseur peuvent indiquer "trace". Cela signifie que des précipitations ont touchés le sol mais que la quantité est inférieure à 0.1 mm.

Récapitulatif de la journée
Température [°C] Vent [km/h] Ensoleillement4 [h] Precipitations totale5 [mm] Pression [Hpa]
Min1 Max.2 Moy.3 Max. Min Max.
4.3 17.0 5.7 14.8 0 h 0 min 0 1023.4 1028.8

1 Température minimale relevée entre 18:00 UTC la veille et 18:00 UTC le jour donné.

2 Température maximale relevée entre 06:00 UTC le jour donné et 06:00 UTC le lendemain.

3 Vent moyen de la journée basé sur les relevés horaires.

4 Ensoleillement en heures relevé entre 06:00 UTC la veille et 06:00 UTC le jour donné.

5 Précipitations totales tombées entre 06:00 UTC la jour donné et 06:00 UTC le lendemain.

Graphiques horaires